createdAt,value
2017-10-10T00:01:05.130Z,23.30
2017-10-10T00:03:39.983Z,25.20
2017-10-10T00:06:14.688Z,22.83
2017-10-10T00:08:49.733Z,23.50
2017-10-10T00:11:24.897Z,24.40
2017-10-10T00:13:59.957Z,22.57
2017-10-10T00:16:34.722Z,20.33
2017-10-10T00:19:09.429Z,21.70
2017-10-10T00:21:44.117Z,22.07
2017-10-10T00:24:18.841Z,20.30
2017-10-10T00:26:53.536Z,21.50
2017-10-10T00:29:28.294Z,22.23
2017-10-10T00:32:03.049Z,21.30
2017-10-10T00:34:37.877Z,21.67
2017-10-10T00:37:12.784Z,19.87
2017-10-10T00:39:48.349Z,20.03
2017-10-10T00:42:23.193Z,20.00
2017-10-10T00:44:57.984Z,20.53
2017-10-10T00:47:33.769Z,19.40
2017-10-10T00:50:07.913Z,18.37
2017-10-10T00:52:42.581Z,17.90
2017-10-10T00:55:17.530Z,20.60
2017-10-10T00:57:51.917Z,19.23
2017-10-10T01:00:26.901Z,19.47
2017-10-10T01:03:01.516Z,19.80
2017-10-10T01:05:37.510Z,20.40
2017-10-10T01:08:12.873Z,20.13
2017-10-10T01:10:47.376Z,19.60
2017-10-10T01:13:22.085Z,20.30
2017-10-10T01:15:56.801Z,18.60
2017-10-10T01:18:31.866Z,20.33
2017-10-10T01:21:06.581Z,19.60
2017-10-10T01:23:40.742Z,20.50
2017-10-10T01:26:15.498Z,20.80
2017-10-10T01:28:49.990Z,21.00
2017-10-10T01:31:24.633Z,20.37
2017-10-10T01:33:59.704Z,20.93
2017-10-10T01:36:34.113Z,21.40
2017-10-10T01:39:08.950Z,22.23
2017-10-10T01:41:44.043Z,22.43
2017-10-10T01:44:18.744Z,20.73
2017-10-10T01:46:53.445Z,21.23
2017-10-10T01:49:28.012Z,20.20
2017-10-10T01:52:02.642Z,21.03
2017-10-10T01:54:37.165Z,20.17
2017-10-10T01:57:11.912Z,21.27
2017-10-10T01:59:46.721Z,21.30
2017-10-10T02:02:21.538Z,21.73
2017-10-10T02:04:56.156Z,22.80
2017-10-10T02:07:30.916Z,21.10
2017-10-10T02:10:06.011Z,21.67
2017-10-10T02:12:41.989Z,23.10
2017-10-10T02:15:16.505Z,25.13
2017-10-10T02:17:51.376Z,25.53
2017-10-10T02:20:26.434Z,23.43
2017-10-10T02:23:01.796Z,24.10
2017-10-10T02:25:36.557Z,23.53
2017-10-10T02:28:11.446Z,26.90
2017-10-10T02:30:46.078Z,26.80
2017-10-10T02:33:20.825Z,26.83
2017-10-10T02:35:55.514Z,25.43
2017-10-10T02:38:30.070Z,27.90
2017-10-10T02:41:04.753Z,27.83
2017-10-10T02:43:39.303Z,28.00
2017-10-10T02:46:14.061Z,28.10
2017-10-10T02:48:48.445Z,28.60
2017-10-10T02:51:23.107Z,28.10
2017-10-10T02:53:58.110Z,28.10
2017-10-10T02:56:32.501Z,26.53
2017-10-10T02:59:07.465Z,29.03
2017-10-10T03:01:42.176Z,28.53
2017-10-10T03:04:16.820Z,28.60
2017-10-10T03:06:51.653Z,26.37
2017-10-10T03:09:26.330Z,26.27
2017-10-10T03:12:00.778Z,26.40
2017-10-10T03:14:35.425Z,26.60
2017-10-10T03:17:10.348Z,26.50
2017-10-10T03:19:45.098Z,28.03
2017-10-10T03:22:19.849Z,26.57
2017-10-10T03:24:54.525Z,26.03
2017-10-10T03:27:29.183Z,27.10
2017-10-10T03:32:44.684Z,28.70
2017-10-10T03:35:19.221Z,28.83
2017-10-10T03:37:53.956Z,28.00
2017-10-10T03:40:28.669Z,29.00
2017-10-10T03:43:03.382Z,27.73
2017-10-10T03:45:39.060Z,30.77
2017-10-10T03:48:13.681Z,30.73
2017-10-10T03:50:48.745Z,35.07
2017-10-10T03:53:23.141Z,34.77
2017-10-10T03:55:57.789Z,33.00
2017-10-10T03:58:32.321Z,38.60
2017-10-10T04:01:07.844Z,36.97
2017-10-10T04:03:42.504Z,37.30
2017-10-10T04:06:17.067Z,30.93
2017-10-10T04:08:51.810Z,30.80
2017-10-10T04:11:26.887Z,29.60
2017-10-10T04:14:01.393Z,31.57
2017-10-10T04:16:36.174Z,29.90
2017-10-10T04:19:11.953Z,32.67
2017-10-10T04:21:46.509Z,32.50
2017-10-10T04:24:21.129Z,32.40
2017-10-10T04:26:55.904Z,33.53
2017-10-10T04:29:30.717Z,32.57
2017-10-10T04:32:05.362Z,34.50
2017-10-10T04:34:40.147Z,34.37
2017-10-10T04:37:14.869Z,38.10
2017-10-10T04:39:49.755Z,38.73
2017-10-10T04:42:24.673Z,40.00
2017-10-10T04:44:59.358Z,40.87
2017-10-10T04:47:34.181Z,40.77
2017-10-10T04:50:08.958Z,42.93
2017-10-10T04:52:44.034Z,41.50
2017-10-10T04:55:18.614Z,42.67
2017-10-10T04:57:53.464Z,42.77
2017-10-10T05:00:27.988Z,42.80
2017-10-10T05:03:02.481Z,43.13
2017-10-10T05:05:37.297Z,44.00
2017-10-10T05:08:12.325Z,46.10
2017-10-10T05:10:47.313Z,46.03
2017-10-10T05:13:21.989Z,44.87
2017-10-10T05:15:56.726Z,45.83
2017-10-10T05:18:31.310Z,47.17
2017-10-10T05:21:06.396Z,47.67
2017-10-10T05:23:40.986Z,49.70
2017-10-10T05:26:16.289Z,48.37
2017-10-10T05:28:51.462Z,46.20
2017-10-10T05:31:25.968Z,48.50
2017-10-10T05:34:01.066Z,46.03
2017-10-10T05:36:35.352Z,46.70
2017-10-10T05:39:10.398Z,47.87
2017-10-10T05:41:45.243Z,44.77
2017-10-10T05:44:20.849Z,47.20
2017-10-10T05:46:55.564Z,48.07
2017-10-10T05:49:30.667Z,48.00
2017-10-10T05:52:05.964Z,47.13
2017-10-10T05:54:40.817Z,47.07
2017-10-10T05:57:15.557Z,48.83
2017-10-10T05:59:50.577Z,53.00
2017-10-10T06:02:25.290Z,51.93
2017-10-10T06:05:00.168Z,53.33
2017-10-10T06:07:34.505Z,55.47
2017-10-10T06:10:09.302Z,51.73
2017-10-10T06:12:44.197Z,54.63
2017-10-10T06:15:18.604Z,53.10
2017-10-10T06:17:53.510Z,48.50
2017-10-10T06:20:28.377Z,45.10
2017-10-10T06:23:03.208Z,47.03
2017-10-10T06:25:37.997Z,47.90
2017-10-10T06:28:12.514Z,44.67
2017-10-10T06:30:47.342Z,45.67
2017-10-10T06:33:21.944Z,48.40
2017-10-10T06:35:56.622Z,45.67
2017-10-10T06:38:31.645Z,44.20
2017-10-10T06:41:07.153Z,41.80
2017-10-10T06:43:41.521Z,43.33
2017-10-10T06:46:16.609Z,40.30
2017-10-10T06:48:52.248Z,42.00
2017-10-10T06:51:27.733Z,39.20
2017-10-10T06:54:02.337Z,38.80
2017-10-10T06:56:37.202Z,41.67
2017-10-10T06:59:11.737Z,37.67
2017-10-10T07:01:46.556Z,35.90
2017-10-10T07:04:21.744Z,38.10
2017-10-10T07:06:56.184Z,35.03
2017-10-10T07:09:31.286Z,32.97
2017-10-10T07:12:06.005Z,30.83
2017-10-10T07:14:40.733Z,30.40
2017-10-10T07:17:15.419Z,31.47
2017-10-10T07:19:50.285Z,29.10
2017-10-10T07:22:25.049Z,29.40
2017-10-10T07:24:59.774Z,30.83
2017-10-10T07:27:34.509Z,33.03
2017-10-10T07:30:09.276Z,29.90
2017-10-10T07:32:43.961Z,30.93
2017-10-10T07:35:18.897Z,27.67
2017-10-10T07:37:53.425Z,30.40
2017-10-10T07:40:28.173Z,29.13
2017-10-10T07:43:02.810Z,33.70
2017-10-10T07:45:37.524Z,33.83
2017-10-10T07:48:12.264Z,31.43
2017-10-10T07:50:47.993Z,34.40
2017-10-10T07:53:23.459Z,32.07
2017-10-10T07:55:58.194Z,35.43
2017-10-10T07:58:32.925Z,34.50
2017-10-10T08:01:07.669Z,33.50
2017-10-10T08:03:42.405Z,35.57
2017-10-10T08:06:17.176Z,35.60
2017-10-10T08:08:51.909Z,31.23
2017-10-10T08:11:26.737Z,32.00
2017-10-10T08:14:01.465Z,31.30
2017-10-10T08:16:37.305Z,34.10
2017-10-10T08:19:11.954Z,30.87
2017-10-10T08:21:46.701Z,31.23
2017-10-10T08:24:21.433Z,32.53
2017-10-10T08:26:56.285Z,31.10
2017-10-10T08:29:30.870Z,26.40
2017-10-10T08:32:05.537Z,29.80
2017-10-10T08:34:40.246Z,29.53
2017-10-10T08:37:14.897Z,29.67
2017-10-10T08:39:49.620Z,26.60
2017-10-10T08:42:33.584Z,27.47
2017-10-10T08:45:08.769Z,28.73
2017-10-10T08:47:43.508Z,26.10
2017-10-10T08:50:18.442Z,26.43
2017-10-10T08:52:53.309Z,26.23
2017-10-10T08:55:28.045Z,27.00
2017-10-10T08:58:02.870Z,29.90
2017-10-10T09:00:37.525Z,30.00
2017-10-10T09:03:12.174Z,27.07
2017-10-10T09:05:46.977Z,26.40
2017-10-10T09:08:21.805Z,25.50
2017-10-10T09:10:56.809Z,26.60
2017-10-10T09:13:31.775Z,26.70
2017-10-10T09:16:07.026Z,26.17
2017-10-10T09:18:41.545Z,28.57
2017-10-10T09:21:16.372Z,24.70
2017-10-10T09:23:51.304Z,26.73
2017-10-10T09:26:25.776Z,26.60
2017-10-10T09:29:01.417Z,25.77
2017-10-10T09:31:36.169Z,26.30
2017-10-10T09:34:10.920Z,26.07
2017-10-10T09:36:46.692Z,25.60
2017-10-10T09:39:21.440Z,26.10
2017-10-10T09:41:56.034Z,25.27
2017-10-10T09:44:30.777Z,24.53
2017-10-10T09:47:05.878Z,25.13
2017-10-10T09:49:40.173Z,25.63
2017-10-10T09:52:14.610Z,23.57
2017-10-10T09:54:49.584Z,25.20
2017-10-10T09:57:24.220Z,25.57
2017-10-10T09:59:58.868Z,25.13
2017-10-10T10:02:33.705Z,25.10
2017-10-10T10:05:08.774Z,22.97
2017-10-10T10:07:43.965Z,25.50
2017-10-10T10:10:18.742Z,26.20
2017-10-10T10:12:53.177Z,28.10
2017-10-10T10:15:27.996Z,26.40
2017-10-10T10:18:02.681Z,22.50
2017-10-10T10:20:37.379Z,23.60
2017-10-10T10:23:12.105Z,24.87
2017-10-10T10:25:46.785Z,19.83
2017-10-10T10:28:21.336Z,20.20
2017-10-10T10:30:55.989Z,24.67
2017-10-10T10:33:30.757Z,20.80
2017-10-10T10:36:05.620Z,19.50
2017-10-10T10:38:40.317Z,18.93
2017-10-10T10:41:15.153Z,21.17
2017-10-10T10:43:52.785Z,20.10
2017-10-10T10:46:27.781Z,22.67
2017-10-10T10:49:02.689Z,22.50
2017-10-10T10:51:37.420Z,21.03
2017-10-10T10:54:12.202Z,23.57
2017-10-10T10:56:46.797Z,23.00
2017-10-10T10:59:21.705Z,22.80
2017-10-10T11:01:56.357Z,21.83
2017-10-10T11:04:31.084Z,21.90
2017-10-10T11:07:05.842Z,22.10
2017-10-10T11:09:40.633Z,21.73
2017-10-10T11:12:15.109Z,22.83
2017-10-10T11:14:50.051Z,19.30
2017-10-10T11:17:24.625Z,22.23
2017-10-10T11:19:59.232Z,20.40
2017-10-10T11:22:34.010Z,21.70
2017-10-10T11:25:08.534Z,23.30
2017-10-10T11:27:43.237Z,21.40
2017-10-10T11:30:17.725Z,23.30
2017-10-10T11:32:53.052Z,21.63
2017-10-10T11:35:27.565Z,20.57
2017-10-10T11:38:02.241Z,19.73
2017-10-10T11:40:37.189Z,20.20
2017-10-10T11:43:12.213Z,20.83
2017-10-10T11:45:47.081Z,20.40
2017-10-10T11:48:21.945Z,22.20
2017-10-10T11:50:56.701Z,19.77
2017-10-10T11:53:31.577Z,22.10
2017-10-10T11:56:06.821Z,19.93
2017-10-10T11:58:41.252Z,20.20
2017-10-10T12:01:15.949Z,21.93
2017-10-10T12:03:50.860Z,22.50
2017-10-10T12:06:25.769Z,20.60
2017-10-10T12:09:00.593Z,19.50
2017-10-10T12:11:36.180Z,23.33
2017-10-10T12:14:10.889Z,20.67
2017-10-10T12:16:45.541Z,22.53
2017-10-10T12:19:20.290Z,19.37
2017-10-10T12:21:55.092Z,21.93
2017-10-10T12:24:30.017Z,20.27
2017-10-10T12:27:04.830Z,22.43
2017-10-10T12:29:39.554Z,20.80
2017-10-10T12:32:14.314Z,20.90
2017-10-10T12:34:49.082Z,20.77
2017-10-10T12:37:24.285Z,19.50
2017-10-10T12:39:59.622Z,19.50
2017-10-10T12:42:34.241Z,15.87
2017-10-10T12:45:09.316Z,19.37
2017-10-10T12:47:44.186Z,17.87
2017-10-10T12:50:18.665Z,21.03
2017-10-10T12:52:53.481Z,18.17
2017-10-10T12:55:28.305Z,15.17
2017-10-10T12:58:03.113Z,17.37
2017-10-10T13:00:37.993Z,17.57
2017-10-10T13:03:12.796Z,16.33
2017-10-10T13:05:47.517Z,18.20
2017-10-10T13:08:22.385Z,17.33
2017-10-10T13:10:57.256Z,19.50
2017-10-10T13:13:32.030Z,17.37
2017-10-10T13:16:06.626Z,18.20
2017-10-10T13:18:41.263Z,17.60
2017-10-10T13:21:16.738Z,17.33
2017-10-10T13:23:51.491Z,18.97
2017-10-10T13:26:27.601Z,18.33
2017-10-10T13:29:02.837Z,17.63
2017-10-10T13:31:37.481Z,16.60
2017-10-10T13:34:12.220Z,20.00
2017-10-10T13:36:47.173Z,18.13
2017-10-10T13:39:21.045Z,18.07
2017-10-10T13:41:56.109Z,19.83
2017-10-10T13:44:30.832Z,20.23
2017-10-10T13:47:05.697Z,19.97
2017-10-10T13:49:40.469Z,16.67
2017-10-10T13:52:15.401Z,19.83
2017-10-10T13:54:50.302Z,17.60
2017-10-10T13:57:25.059Z,19.23
2017-10-10T13:59:59.616Z,19.00
2017-10-10T14:02:34.665Z,20.50
2017-10-10T14:05:09.199Z,19.60
2017-10-10T14:07:43.802Z,17.53
2017-10-10T14:10:18.518Z,18.33
2017-10-10T14:12:53.229Z,17.33
2017-10-10T14:15:28.006Z,17.70
2017-10-10T14:18:02.789Z,17.30
2017-10-10T14:20:37.838Z,17.17
2017-10-10T14:23:12.893Z,16.50
2017-10-10T14:25:47.717Z,17.53
2017-10-10T14:28:22.396Z,17.50
2017-10-10T14:30:57.177Z,17.27
2017-10-10T14:33:31.977Z,14.70
2017-10-10T14:36:07.634Z,15.40
2017-10-10T14:38:42.360Z,17.17
2017-10-10T14:41:17.116Z,14.97
2017-10-10T14:43:51.737Z,16.30
2017-10-10T14:46:26.561Z,16.43
2017-10-10T14:49:01.255Z,14.70
2017-10-10T14:51:36.957Z,17.27
2017-10-10T14:54:11.705Z,15.93
2017-10-10T14:56:46.489Z,16.57
2017-10-10T14:59:21.217Z,17.47
2017-10-10T15:01:56.017Z,16.40
2017-10-10T15:04:30.545Z,15.03
2017-10-10T15:07:05.450Z,17.43
2017-10-10T15:09:40.225Z,16.47
2017-10-10T15:12:15.057Z,16.97
2017-10-10T15:14:49.689Z,16.43
2017-10-10T15:17:24.561Z,18.27
2017-10-10T15:19:59.346Z,19.53
2017-10-10T15:22:34.092Z,16.30
2017-10-10T15:25:08.925Z,18.50
2017-10-10T15:27:43.675Z,19.10
2017-10-10T15:30:18.473Z,15.97
2017-10-10T15:32:53.181Z,19.10
2017-10-10T15:35:27.937Z,16.77
2017-10-10T15:38:02.639Z,19.97
2017-10-10T15:40:38.297Z,20.63
2017-10-10T15:43:13.021Z,18.47
2017-10-10T15:45:48.553Z,20.60
2017-10-10T15:48:24.270Z,20.10
2017-10-10T15:50:59.932Z,21.43
2017-10-10T15:53:34.606Z,19.70
2017-10-10T15:56:09.361Z,20.63
2017-10-10T15:58:44.142Z,22.23
2017-10-10T16:01:18.705Z,19.33
2017-10-10T16:03:53.502Z,20.17
2017-10-10T16:06:28.210Z,20.40
2017-10-10T16:09:02.861Z,17.70
2017-10-10T16:11:37.774Z,21.03
2017-10-10T16:14:12.763Z,20.70
2017-10-10T16:16:48.249Z,20.23
2017-10-10T16:19:23.232Z,20.07
2017-10-10T16:21:59.092Z,22.60
2017-10-10T16:24:33.925Z,24.10
2017-10-10T16:27:08.937Z,20.40
2017-10-10T16:29:43.701Z,22.33
2017-10-10T16:32:18.491Z,20.90
2017-10-10T16:34:53.057Z,19.53
2017-10-10T16:37:27.752Z,20.80
2017-10-10T16:40:02.795Z,22.20
2017-10-10T16:42:37.415Z,21.17
2017-10-10T16:45:12.042Z,23.00
2017-10-10T16:47:46.945Z,21.33
2017-10-10T16:50:21.633Z,21.67
2017-10-10T16:52:57.196Z,20.40
2017-10-10T16:55:31.880Z,21.90
2017-10-10T16:58:06.509Z,20.40
2017-10-10T17:00:41.136Z,20.03
2017-10-10T17:03:15.741Z,19.93
2017-10-10T17:05:50.397Z,17.87
2017-10-10T17:08:25.315Z,20.70
2017-10-10T17:10:59.912Z,20.10
2017-10-10T17:13:34.755Z,18.87
2017-10-10T17:16:09.089Z,19.97
2017-10-10T17:18:44.342Z,18.80
2017-10-10T17:21:19.169Z,17.70
2017-10-10T17:23:53.926Z,19.10
2017-10-10T17:26:28.652Z,21.13
2017-10-10T17:29:03.525Z,18.30
2017-10-10T17:31:38.157Z,18.43
2017-10-10T17:34:13.206Z,19.00
2017-10-10T17:36:47.977Z,19.20
2017-10-10T17:39:22.988Z,16.80
2017-10-10T17:41:57.940Z,17.67
2017-10-10T17:44:32.898Z,17.30
2017-10-10T17:47:07.908Z,17.73
2017-10-10T17:49:42.618Z,18.77
2017-10-10T17:52:18.348Z,17.60
2017-10-10T17:54:53.249Z,17.47
2017-10-10T17:57:27.769Z,17.47
2017-10-10T18:00:02.701Z,17.20
2017-10-10T18:02:37.345Z,20.20
2017-10-10T18:05:12.077Z,19.40
2017-10-10T18:07:46.889Z,18.77
2017-10-10T18:10:21.797Z,17.67
2017-10-10T18:12:56.544Z,19.37
2017-10-10T18:15:31.338Z,17.57
2017-10-10T18:18:06.172Z,19.17
2017-10-10T18:20:40.849Z,18.20
2017-10-10T18:23:15.810Z,18.70
2017-10-10T18:25:50.696Z,17.67
2017-10-10T18:28:25.516Z,18.90
2017-10-10T18:31:00.429Z,17.33
2017-10-10T18:33:35.150Z,19.67
2017-10-10T18:36:09.886Z,19.67
2017-10-10T18:38:44.362Z,16.47
2017-10-10T18:41:19.381Z,19.90
2017-10-10T18:43:54.048Z,20.47
2017-10-10T18:46:28.705Z,19.50
2017-10-10T18:49:03.670Z,21.43
2017-10-10T18:51:38.701Z,20.40
2017-10-10T18:54:13.550Z,21.97
2017-10-10T18:56:48.262Z,25.93
2017-10-10T18:59:23.035Z,22.20
2017-10-10T19:01:57.817Z,21.57
2017-10-10T19:04:32.637Z,20.60
2017-10-10T19:07:07.373Z,17.97
2017-10-10T19:09:42.187Z,20.70
2017-10-10T19:12:17.006Z,19.80
2017-10-10T19:14:51.720Z,21.27
2017-10-10T19:17:26.461Z,21.70
2017-10-10T19:20:01.208Z,22.13
2017-10-10T19:22:36.145Z,19.17
2017-10-10T19:25:11.010Z,20.90
2017-10-10T19:27:45.613Z,21.07
2017-10-10T19:30:20.325Z,21.13
2017-10-10T19:32:55.034Z,20.63
2017-10-10T19:35:29.663Z,25.17
2017-10-10T19:38:04.161Z,24.87
2017-10-10T19:40:39.002Z,24.10
2017-10-10T19:43:13.847Z,26.47
2017-10-10T19:45:48.698Z,25.40
2017-10-10T19:48:23.430Z,21.60
2017-10-10T19:50:58.500Z,22.10
2017-10-10T19:53:33.209Z,20.70
2017-10-10T19:56:07.905Z,20.80
2017-10-10T19:58:42.688Z,21.80
2017-10-10T20:01:17.565Z,20.03
2017-10-10T20:03:52.497Z,21.47
2017-10-10T20:06:27.273Z,20.37
2017-10-10T20:09:02.077Z,20.70
2017-10-10T20:11:36.853Z,21.97
2017-10-10T20:14:11.803Z,21.10
2017-10-10T20:16:46.662Z,21.03
2017-10-10T20:19:21.466Z,21.17
2017-10-10T20:21:56.021Z,21.70
2017-10-10T20:24:30.489Z,22.70
2017-10-10T20:27:05.082Z,23.53
2017-10-10T20:29:39.912Z,23.50
2017-10-10T20:32:14.907Z,22.83
2017-10-10T20:34:50.484Z,22.53
2017-10-10T20:37:27.145Z,23.70
2017-10-10T20:40:01.865Z,22.60
2017-10-10T20:42:36.357Z,23.00
2017-10-10T20:45:11.149Z,23.13
2017-10-10T20:47:45.909Z,23.70
2017-10-10T20:50:20.536Z,21.77
2017-10-10T20:52:55.428Z,22.43
2017-10-10T20:55:30.265Z,23.60
2017-10-10T20:58:05.058Z,22.30
2017-10-10T21:00:39.821Z,22.20
2017-10-10T21:03:14.692Z,24.20
2017-10-10T21:05:50.377Z,22.90
2017-10-10T21:08:25.406Z,22.37
2017-10-10T21:11:00.385Z,20.17
2017-10-10T21:13:35.238Z,21.73
2017-10-10T21:16:10.193Z,20.83
2017-10-10T21:18:44.961Z,20.60
2017-10-10T21:21:19.898Z,21.03
2017-10-10T21:23:54.701Z,22.87
2017-10-10T21:26:29.386Z,22.03
2017-10-10T21:29:04.035Z,21.97
2017-10-10T21:31:38.765Z,24.50
2017-10-10T21:34:13.513Z,25.23
2017-10-10T21:36:48.474Z,25.63
2017-10-10T21:39:23.324Z,26.40
2017-10-10T21:41:58.109Z,27.50
2017-10-10T21:44:32.818Z,27.00
2017-10-10T21:47:07.696Z,27.97
2017-10-10T21:49:42.638Z,28.50
2017-10-10T21:52:17.365Z,27.90
2017-10-10T21:54:52.030Z,30.23
2017-10-10T21:57:26.753Z,30.57
2017-10-10T22:00:01.549Z,28.77
2017-10-10T22:02:37.177Z,31.17
2017-10-10T22:05:12.057Z,26.40
2017-10-10T22:07:46.891Z,29.53
2017-10-10T22:10:21.610Z,25.97
2017-10-10T22:12:56.345Z,24.20
2017-10-10T22:15:30.973Z,23.50
2017-10-10T22:18:05.677Z,22.27
2017-10-10T22:20:40.509Z,23.30
2017-10-10T22:23:15.649Z,22.97
2017-10-10T22:25:50.442Z,23.13
2017-10-10T22:28:25.069Z,22.90
2017-10-10T22:30:59.936Z,22.87
2017-10-10T22:33:34.793Z,22.37
2017-10-10T22:36:09.516Z,23.50
2017-10-10T22:38:44.550Z,24.10
2017-10-10T22:41:19.281Z,23.73
2017-10-10T22:43:54.033Z,23.27
2017-10-10T22:46:30.539Z,23.10
2017-10-10T22:49:05.892Z,21.30
2017-10-10T22:51:40.512Z,20.73
2017-10-10T22:54:15.224Z,20.80
2017-10-10T22:56:49.697Z,22.43
2017-10-10T23:08:43.970Z,22.30
2017-10-10T23:11:18.824Z,22.13
2017-10-10T23:13:53.605Z,21.13
2017-10-10T23:16:28.892Z,23.17
2017-10-10T23:19:04.140Z,23.47
2017-10-10T23:21:39.250Z,21.07
2017-10-10T23:24:14.381Z,23.30
2017-10-10T23:26:49.569Z,20.60
2017-10-10T23:29:24.298Z,22.53
2017-10-10T23:31:59.157Z,20.33
2017-10-10T23:34:34.141Z,21.00
2017-10-10T23:37:09.109Z,20.43
2017-10-10T23:39:44.453Z,22.13
2017-10-10T23:42:18.906Z,19.13
2017-10-10T23:44:54.009Z,19.80
2017-10-10T23:47:28.653Z,21.20
2017-10-10T23:50:03.382Z,21.60
2017-10-10T23:52:38.697Z,20.80
2017-10-10T23:55:13.937Z,21.37
2017-10-10T23:57:49.505Z,21.10
